Time;durP1;ratioP1;P1;durP2;ratioP2;P2;SDS_P1;SDS_P2;PMS_P1;PMS_P2;Temp;Humidity;BMP_temperature;BMP_pressure;BME280_temperature;BME280_humidity;BME280_pressure;Samples;Min_cycle;Max_cycle;Signal;HPM_P1;HPM_P2
2023/03/19 00:01:24;;;;;;;;;;;;;;;;;;5045126;28;3256;-52
2023/03/19 00:03:50;;;;;;;;;;;;;;;;;;5052571;28;4810;-64
2023/03/19 00:06:15;;;;;;;;;;;;;;;;;;5036342;28;4517;-57
2023/03/19 00:08:40;;;;;;;;;;;;;;;;;;5046665;28;4654;-58
2023/03/19 00:11:09;;;;;;;;;;;;;;;;;;5048083;28;4490;-58
2023/03/19 00:13:34;;;;;;;;;;;;;;;;;;5042959;28;4636;-58
2023/03/19 00:16:00;;;;;;;;;;;;;;;;;;5038109;28;3656;-58
2023/03/19 00:18:25;;;;;;;;;;;;;;;;;;5043949;28;4712;-57
2023/03/19 00:20:51;;;;;;;;;;;;;;;;;;5038537;28;5049;-58
2023/03/19 00:23:16;;;;;;;;;;;;;;;;;;5043710;28;5095;-58
2023/03/19 00:25:42;;;;;;;;;;;;;;;;;;5043163;28;5053;-58
2023/03/19 00:28:07;;;;;;;;;;;;;;;;;;5048375;28;3253;-58
2023/03/19 00:30:32;;;;;;;;;;;;;;;;;;5046621;28;4674;-58
2023/03/19 00:32:58;;;;;;;;;;;;;;;;;;5048869;28;4455;-58
2023/03/19 00:35:23;;;;;;;;;;;;;;;;;;5044304;28;4689;-58
2023/03/19 00:37:48;;;;;;;;;;;;;;;;;;5046354;28;4825;-57
2023/03/19 00:40:14;;;;;;;;;;;;;;;;;;5044791;28;1975;-58
2023/03/19 00:42:40;;;;;;;;;;;;;;;;;;5045112;28;5017;-58
2023/03/19 00:45:05;;;;;;;;;;;;;;;;;;5041244;28;4534;-58
2023/03/19 00:47:31;;;;;;;;;;;;;;;;;;5048796;28;4630;-57
2023/03/19 00:49:56;;;;;;;;;;;;;;;;;;5046504;28;5274;-58
2023/03/19 00:52:21;;;;;;;;;;;;;;;;;;5050932;28;1077;-58
2023/03/19 00:54:46;;;;;;;;;;;;;;;;;;5047131;28;5024;-58
2023/03/19 00:57:12;;;;;;;;;;;;;;;;;;5035121;28;5174;-57
2023/03/19 00:59:37;;;;;;;;;;;;;;;;;;5046848;28;4474;-58
2023/03/19 01:02:02;;;;;;;;;;;;;;;;;;5044934;28;4760;-58
2023/03/19 01:04:28;;;;;;;;;;;;;;;;;;5044651;28;4836;-58
2023/03/19 01:06:53;;;;;;;;;;;;;;;;;;5047038;28;5025;-58
2023/03/19 01:09:18;;;;;;;;;;;;;;;;;;5046549;28;4851;-58
2023/03/19 01:11:43;;;;;;;;;;;;;;;;;;5039991;28;4499;-58
2023/03/19 01:14:09;;;;;;;;;;;;;;;;;;5046808;28;5102;-58
2023/03/19 01:16:35;;;;;;;;;;;;;;;;;;5046149;28;4483;-58
2023/03/19 01:19:00;;;;;;;;;;;;;;;;;;5048131;28;3310;-58
2023/03/19 01:21:26;;;;;;;;;;;;;;;;;;5047724;28;4633;-58
2023/03/19 01:23:51;;;;;;;;;;;;;;;;;;5046894;28;4674;-59
2023/03/19 01:26:17;;;;;;;;;;;;;;;;;;5042426;28;4908;-58
2023/03/19 01:28:42;;;;;;;;;;;;;;;;;;5045779;28;4514;-56
2023/03/19 01:31:08;;;;;;;;;;;;;;;;;;5028006;28;3277;-58
2023/03/19 01:33:33;;;;;;;;;;;;;;;;;;5047587;28;4411;-58
2023/03/19 01:36:01;;;;;;;;;;;;;;;;;;5044739;28;4578;-58
2023/03/19 01:38:26;;;;;;;;;;;;;;;;;;5038922;28;4624;-58
2023/03/19 01:40:52;;;;;;;;;;;;;;;;;;5041437;28;5169;-58
2023/03/19 01:43:21;;;;;;;;;;;;;;;;;;5045312;28;3240;-58
2023/03/19 01:45:46;;;;;;;;;;;;;;;;;;5044962;28;4960;-58
2023/03/19 01:48:15;;;;;;;;;;;;;;;;;;5047329;28;4894;-58
2023/03/19 01:50:41;;;;;;;;;;;;;;;;;;5044463;28;4736;-62
2023/03/19 01:53:06;;;;;;;;;;;;;;;;;;5041086;28;4993;-57
2023/03/19 01:55:32;;;;;;;;;;;;;;;;;;5044214;28;3408;-58
2023/03/19 01:57:57;;;;;;;;;;;;;;;;;;5035687;28;4646;-58
2023/03/19 02:00:22;;;;;;;;;;;;;;;;;;5040876;28;5041;-58
2023/03/19 02:02:48;;;;;;;;;;;;;;;;;;5037982;28;5383;-58
2023/03/19 02:05:14;;;;;;;;;;;;;;;;;;5041056;28;4771;-58
2023/03/19 02:07:40;;;;;;;;;;;;;;;;;;5039903;28;4695;-57
2023/03/19 02:10:07;;;;;;;;;;;;;;;;;;5047856;28;3164;-58
2023/03/19 02:12:32;;;;;;;;;;;;;;;;;;5043025;28;5105;-58
2023/03/19 02:14:57;;;;;;;;;;;;;;;;;;5044141;28;5110;-58
2023/03/19 02:17:22;;;;;;;;;;;;;;;;;;5045479;28;4528;-58
2023/03/19 02:19:51;;;;;;;;;;;;;;;;;;5037544;28;5482;-58
2023/03/19 02:22:16;;;;;;;;;;;;;;;;;;5041106;28;3264;-58
2023/03/19 02:25:00;;;;;;;;;;;;;;;;;;5041353;28;4454;-58
2023/03/19 02:27:26;;;;;;;;;;;;;;;;;;5043907;28;4755;-58
2023/03/19 02:29:51;;;;;;;;;;;;;;;;;;5043317;28;5030;-58
2023/03/19 02:32:16;;;;;;;;;;;;;;;;;;5047131;28;5043;-58
2023/03/19 02:34:42;;;;;;;;;;;;;;;;;;5039296;28;4545;-58
2023/03/19 02:37:12;;;;;;;;;;;;;;;;;;5046518;28;1329;-58
2023/03/19 02:39:46;;;;;;;;;;;;;;;;;;5042147;28;4479;-58
2023/03/19 02:42:12;;;;;;;;;;;;;;;;;;5040382;28;4697;-58
2023/03/19 02:44:37;;;;;;;;;;;;;;;;;;5044241;28;5014;-57
2023/03/19 02:47:03;;;;;;;;;;;;;;;;;;5044916;28;4503;-58
2023/03/19 02:49:28;;;;;;;;;;;;;;;;;;5040627;28;3316;-58
2023/03/19 02:51:53;;;;;;;;;;;;;;;;;;5042822;28;4817;-58
2023/03/19 02:54:19;;;;;;;;;;;;;;;;;;5046173;28;4464;-57
2023/03/19 02:56:45;;;;;;;;;;;;;;;;;;5042534;28;5805;-57
2023/03/19 02:59:10;;;;;;;;;;;;;;;;;;5045332;28;4479;-58
2023/03/19 03:01:36;;;;;;;;;;;;;;;;;;5046728;28;4578;-57
2023/03/19 03:04:01;;;;;;;;;;;;;;;;;;5036888;28;4855;-57
2023/03/19 03:06:26;;;;;;;;;;;;;;;;;;5055036;28;4459;-58
2023/03/19 03:08:51;;;;;;;;;;;;;;;;;;5053105;28;5405;-58
2023/03/19 03:11:17;;;;;;;;;;;;;;;;;;5047462;28;5018;-57
2023/03/19 03:13:42;;;;;;;;;;;;;;;;;;5042450;28;5020;-58
2023/03/19 03:16:07;;;;;;;;;;;;;;;;;;5047997;28;3595;-58
2023/03/19 03:18:33;;;;;;;;;;;;;;;;;;5035690;28;4992;-58
2023/03/19 03:20:58;;;;;;;;;;;;;;;;;;5072176;28;4537;-58
2023/03/19 03:23:23;;;;;;;;;;;;;;;;;;5041763;28;4955;-58
2023/03/19 03:25:49;;;;;;;;;;;;;;;;;;5045186;28;5045;-57
2023/03/19 03:28:15;;;;;;;;;;;;;;;;;;5079654;28;1053;-57
2023/03/19 03:30:40;;;;;;;;;;;;;;;;;;5041549;28;4753;-57
2023/03/19 03:33:06;;;;;;;;;;;;;;;;;;5041119;28;4820;-58
2023/03/19 03:35:31;;;;;;;;;;;;;;;;;;5044156;28;4451;-57
2023/03/19 03:37:56;;;;;;;;;;;;;;;;;;5043830;28;4462;-58
2023/03/19 03:40:22;;;;;;;;;;;;;;;;;;5044001;28;3277;-58
2023/03/19 03:42:47;;;;;;;;;;;;;;;;;;5046173;28;5073;-57
2023/03/19 03:45:13;;;;;;;;;;;;;;;;;;5039648;28;5027;-57
2023/03/19 03:47:38;;;;;;;;;;;;;;;;;;5037282;28;4995;-58
2023/03/19 03:50:04;;;;;;;;;;;;;;;;;;5036764;28;5009;-58
2023/03/19 03:52:30;;;;;;;;;;;;;;;;;;5044880;28;3209;-57
2023/03/19 03:54:59;;;;;;;;;;;;;;;;;;5043460;28;4645;-58
2023/03/19 03:57:24;;;;;;;;;;;;;;;;;;5034407;28;4866;-58
2023/03/19 03:59:50;;;;;;;;;;;;;;;;;;5041207;28;5063;-58
2023/03/19 04:02:15;;;;;;;;;;;;;;;;;;5037947;28;4502;-58
2023/03/19 04:04:40;;;;;;;;;;;;;;;;;;5040332;28;4842;-58
2023/03/19 04:07:06;;;;;;;;;;;;;;;;;;5039425;28;3359;-58
2023/03/19 04:09:31;;;;;;;;;;;;;;;;;;5039183;28;4899;-57
2023/03/19 04:11:57;;;;;;;;;;;;;;;;;;5041246;28;4683;-58
2023/03/19 04:14:22;;;;;;;;;;;;;;;;;;5033167;28;4467;-57
2023/03/19 04:16:47;;;;;;;;;;;;;;;;;;5039319;28;4522;-58
2023/03/19 04:19:13;;;;;;;;;;;;;;;;;;5038199;28;3998;-57
2023/03/19 04:21:38;;;;;;;;;;;;;;;;;;5040354;28;4633;-57
2023/03/19 04:24:04;;;;;;;;;;;;;;;;;;5039962;28;4516;-58
2023/03/19 04:26:29;;;;;;;;;;;;;;;;;;5038999;28;5277;-58
2023/03/19 04:28:54;;;;;;;;;;;;;;;;;;5043169;28;4496;-57
2023/03/19 04:31:19;;;;;;;;;;;;;;;;;;5041867;28;3344;-58
2023/03/19 04:33:45;;;;;;;;;;;;;;;;;;5044199;28;4663;-57
2023/03/19 04:36:10;;;;;;;;;;;;;;;;;;5047212;28;5106;-58
2023/03/19 04:38:37;;;;;;;;;;;;;;;;;;5046818;28;4506;-58
2023/03/19 04:41:03;;;;;;;;;;;;;;;;;;5044461;28;4865;-58
2023/03/19 04:43:28;;;;;;;;;;;;;;;;;;5047518;28;3221;-58
2023/03/19 04:45:54;;;;;;;;;;;;;;;;;;5044231;28;5295;-58
2023/03/19 04:48:20;;;;;;;;;;;;;;;;;;5041742;28;5135;-58
2023/03/19 04:50:46;;;;;;;;;;;;;;;;;;5039695;28;4516;-58
2023/03/19 04:53:11;;;;;;;;;;;;;;;;;;5040755;28;4708;-58
2023/03/19 04:55:37;;;;;;;;;;;;;;;;;;5038527;28;4504;-57
2023/03/19 04:58:02;;;;;;;;;;;;;;;;;;5039015;28;3293;-57
2023/03/19 05:00:29;;;;;;;;;;;;;;;;;;5044801;28;4808;-57
2023/03/19 05:02:54;;;;;;;;;;;;;;;;;;5038432;28;6137;-58
2023/03/19 05:05:20;;;;;;;;;;;;;;;;;;5050707;28;4802;-57
2023/03/19 05:07:46;;;;;;;;;;;;;;;;;;5048183;28;4671;-58
2023/03/19 05:10:11;;;;;;;;;;;;;;;;;;5047347;28;1167;-58
2023/03/19 05:12:36;;;;;;;;;;;;;;;;;;5045618;28;4463;-58
2023/03/19 05:15:04;;;;;;;;;;;;;;;;;;5042650;28;4541;-56
2023/03/19 05:17:29;;;;;;;;;;;;;;;;;;5024733;28;4792;-58
2023/03/19 05:19:54;;;;;;;;;;;;;;;;;;5044998;28;4642;-58
2023/03/19 05:22:20;;;;;;;;;;;;;;;;;;5046104;28;3292;-58
2023/03/19 05:24:45;;;;;;;;;;;;;;;;;;5036112;28;4513;-57
2023/03/19 05:27:11;;;;;;;;;;;;;;;;;;5046562;28;4661;-58
2023/03/19 05:29:36;;;;;;;;;;;;;;;;;;5045938;28;4644;-57
2023/03/19 05:32:01;;;;;;;;;;;;;;;;;;5048906;28;4945;-57
2023/03/19 05:34:27;;;;;;;;;;;;;;;;;;5044483;28;3474;-58
2023/03/19 05:36:52;;;;;;;;;;;;;;;;;;5032278;28;5042;-58
2023/03/19 05:39:18;;;;;;;;;;;;;;;;;;5044698;28;5323;-58
2023/03/19 05:41:43;;;;;;;;;;;;;;;;;;5042804;28;4575;-57
2023/03/19 05:44:09;;;;;;;;;;;;;;;;;;5036797;28;4717;-58
2023/03/19 05:46:34;;;;;;;;;;;;;;;;;;5038015;28;4539;-56
2023/03/19 05:48:59;;;;;;;;;;;;;;;;;;5044558;28;3299;-56
2023/03/19 05:51:25;;;;;;;;;;;;;;;;;;5040650;28;5098;-58
2023/03/19 05:53:50;;;;;;;;;;;;;;;;;;5032308;28;4490;-58
2023/03/19 05:56:16;;;;;;;;;;;;;;;;;;5043677;28;4633;-58
2023/03/19 05:58:41;;;;;;;;;;;;;;;;;;5044175;28;4624;-58
2023/03/19 06:01:06;;;;;;;;;;;;;;;;;;5051179;28;2120;-58
2023/03/19 06:03:31;;;;;;;;;;;;;;;;;;5047093;28;4870;-58
2023/03/19 06:05:57;;;;;;;;;;;;;;;;;;5036380;28;5139;-58
2023/03/19 06:08:22;;;;;;;;;;;;;;;;;;5043592;28;4680;-57
2023/03/19 06:10:47;;;;;;;;;;;;;;;;;;5040858;28;5057;-58
2023/03/19 06:13:13;;;;;;;;;;;;;;;;;;5051512;28;1034;-58
2023/03/19 06:15:38;;;;;;;;;;;;;;;;;;5045170;28;4419;-58
2023/03/19 06:18:03;;;;;;;;;;;;;;;;;;5048244;28;4673;-58
2023/03/19 06:20:28;;;;;;;;;;;;;;;;;;5045095;28;5082;-58
2023/03/19 06:22:54;;;;;;;;;;;;;;;;;;5042376;28;5640;-58
2023/03/19 06:25:19;;;;;;;;;;;;;;;;;;5046921;28;1081;-58
2023/03/19 06:27:44;;;;;;;;;;;;;;;;;;5039699;28;4616;-58
2023/03/19 06:30:10;;;;;;;;;;;;;;;;;;5049724;28;5067;-57
2023/03/19 06:32:35;;;;;;;;;;;;;;;;;;5046512;28;4463;-58
2023/03/19 06:35:01;;;;;;;;;;;;;;;;;;5038803;28;4753;-58
2023/03/19 06:37:26;;;;;;;;;;;;;;;;;;5033822;28;1629;-58
2023/03/19 06:39:53;;;;;;;;;;;;;;;;;;5036769;28;4427;-57
2023/03/19 06:42:19;;;;;;;;;;;;;;;;;;5036380;28;4855;-58
2023/03/19 06:44:44;;;;;;;;;;;;;;;;;;5039040;28;4682;-57
2023/03/19 06:47:09;;;;;;;;;;;;;;;;;;5034540;28;4667;-57
2023/03/19 06:49:35;;;;;;;;;;;;;;;;;;5037752;28;4980;-57
2023/03/19 06:52:00;;;;;;;;;;;;;;;;;;5039672;28;3443;-57
2023/03/19 06:54:26;;;;;;;;;;;;;;;;;;5044115;28;5082;-57
2023/03/19 06:56:51;;;;;;;;;;;;;;;;;;5037431;28;4994;-57
2023/03/19 06:59:16;;;;;;;;;;;;;;;;;;5044003;28;4451;-57
2023/03/19 07:01:42;;;;;;;;;;;;;;;;;;5041201;28;4727;-57
2023/03/19 07:04:07;;;;;;;;;;;;;;;;;;5046747;28;4874;-57
2023/03/19 07:06:33;;;;;;;;;;;;;;;;;;5040876;28;4895;-57
2023/03/19 07:08:58;;;;;;;;;;;;;;;;;;5042766;28;4497;-57
2023/03/19 07:11:24;;;;;;;;;;;;;;;;;;5045423;28;5339;-57
2023/03/19 07:13:49;;;;;;;;;;;;;;;;;;5045536;28;5412;-57
2023/03/19 07:16:14;;;;;;;;;;;;;;;;;;5044584;28;2131;-57
2023/03/19 07:18:40;;;;;;;;;;;;;;;;;;5053146;28;4481;-57
2023/03/19 07:21:05;;;;;;;;;;;;;;;;;;5051024;28;5055;-56
2023/03/19 07:23:30;;;;;;;;;;;;;;;;;;5045596;28;4759;-57
2023/03/19 07:25:56;;;;;;;;;;;;;;;;;;5044720;28;4690;-57
2023/03/19 07:28:21;;;;;;;;;;;;;;;;;;5047979;28;1318;-57
2023/03/19 07:30:47;;;;;;;;;;;;;;;;;;5039927;28;4425;-57
2023/03/19 07:33:12;;;;;;;;;;;;;;;;;;5052885;28;4762;-57
2023/03/19 07:35:37;;;;;;;;;;;;;;;;;;5047254;28;5148;-56
2023/03/19 07:38:02;;;;;;;;;;;;;;;;;;5039737;28;4669;-57
2023/03/19 07:40:28;;;;;;;;;;;;;;;;;;5049370;28;3506;-57
2023/03/19 07:42:53;;;;;;;;;;;;;;;;;;5047183;28;4586;-57
2023/03/19 07:45:18;;;;;;;;;;;;;;;;;;5034036;28;4463;-56
2023/03/19 07:47:43;;;;;;;;;;;;;;;;;;5038858;28;4476;-56
2023/03/19 07:50:09;;;;;;;;;;;;;;;;;;5041953;28;4482;-56
2023/03/19 07:52:35;;;;;;;;;;;;;;;;;;5039599;28;4677;-56
2023/03/19 07:55:00;;;;;;;;;;;;;;;;;;5040552;28;3595;-57
2023/03/19 07:57:26;;;;;;;;;;;;;;;;;;5038601;28;4561;-57
2023/03/19 07:59:52;;;;;;;;;;;;;;;;;;5043100;28;5191;-54
2023/03/19 08:02:17;;;;;;;;;;;;;;;;;;5045364;28;5139;-57
2023/03/19 08:04:43;;;;;;;;;;;;;;;;;;5040961;28;4810;-56
2023/03/19 08:07:09;;;;;;;;;;;;;;;;;;5045407;28;1715;-57
2023/03/19 08:09:36;;;;;;;;;;;;;;;;;;5045829;28;4969;-57
2023/03/19 08:12:01;;;;;;;;;;;;;;;;;;5046968;28;4511;-57
2023/03/19 08:14:26;;;;;;;;;;;;;;;;;;5043637;28;4498;-57
2023/03/19 08:16:51;;;;;;;;;;;;;;;;;;5044344;28;4486;-57
2023/03/19 08:19:17;;;;;;;;;;;;;;;;;;5044265;28;3260;-57
2023/03/19 08:21:42;;;;;;;;;;;;;;;;;;5047312;28;4725;-62
2023/03/19 08:24:08;;;;;;;;;;;;;;;;;;5050902;28;5059;-57
2023/03/19 08:26:33;;;;;;;;;;;;;;;;;;5047674;28;4999;-58
2023/03/19 08:28:59;;;;;;;;;;;;;;;;;;5040348;28;4990;-57
2023/03/19 08:31:24;;;;;;;;;;;;;;;;;;5050578;28;3578;-60
2023/03/19 08:33:49;;;;;;;;;;;;;;;;;;5042281;28;4675;-56
2023/03/19 08:36:15;;;;;;;;;;;;;;;;;;5049492;28;4587;-58
2023/03/19 08:38:40;;;;;;;;;;;;;;;;;;5045159;28;5050;-60
2023/03/19 08:41:05;;;;;;;;;;;;;;;;;;5043373;28;5096;-60
2023/03/19 08:43:31;;;;;;;;;;;;;;;;;;5034988;28;4066;-63
2023/03/19 08:45:56;;;;;;;;;;;;;;;;;;5050067;28;4668;-62
2023/03/19 08:48:22;;;;;;;;;;;;;;;;;;5052228;28;5055;-66
2023/03/19 08:50:57;;;;;;;;;;;;;;;;;;5047852;28;4681;-62
2023/03/19 08:53:22;;;;;;;;;;;;;;;;;;5041727;28;5387;-67
2023/03/19 08:55:55;;;;;;;;;;;;;;;;;;5037530;28;5202;-61
2023/03/19 08:58:20;;;;;;;;;;;;;;;;;;5071225;28;3446;-62
2023/03/19 09:00:46;;;;;;;;;;;;;;;;;;5046278;28;4413;-64
2023/03/19 09:03:11;;;;;;;;;;;;;;;;;;5080785;28;4473;-62
2023/03/19 09:05:36;;;;;;;;;;;;;;;;;;5040535;28;5052;-62
2023/03/19 09:08:02;;;;;;;;;;;;;;;;;;5047786;28;5001;-64
2023/03/19 09:10:27;;;;;;;;;;;;;;;;;;5039622;28;3543;-65
2023/03/19 09:12:52;;;;;;;;;;;;;;;;;;5039899;28;4447;-63
2023/03/19 09:15:17;;;;;;;;;;;;;;;;;;5043925;28;5059;-62
2023/03/19 09:17:43;;;;;;;;;;;;;;;;;;5043844;28;5105;-63
2023/03/19 09:20:09;;;;;;;;;;;;;;;;;;5044612;28;4626;-65
2023/03/19 09:22:34;;;;;;;;;;;;;;;;;;5038720;28;5223;-62
2023/03/19 09:24:59;;;;;;;;;;;;;;;;;;5046823;28;3408;-63
2023/03/19 09:27:25;;;;;;;;;;;;;;;;;;5047127;28;4618;-65
2023/03/19 09:29:50;;;;;;;;;;;;;;;;;;5044113;28;4664;-60
2023/03/19 09:32:15;;;;;;;;;;;;;;;;;;5045392;28;4561;-59
2023/03/19 09:34:40;;;;;;;;;;;;;;;;;;5041860;28;4522;-63
2023/03/19 09:37:06;;;;;;;;;;;;;;;;;;5042486;28;3379;-61
2023/03/19 09:39:32;;;;;;;;;;;;;;;;;;5044574;28;4494;-60
2023/03/19 09:42:02;;;;;;;;;;;;;;;;;;5041452;28;4735;-60
2023/03/19 09:44:36;;;;;;;;;;;;;;;;;;5047811;28;4724;-63
2023/03/19 09:47:07;;;;;;;;;;;;;;;;;;5029524;28;4720;-62
2023/03/19 09:49:42;;;;;;;;;;;;;;;;;;5045038;28;1412;-63
2023/03/19 09:52:26;;;;;;;;;;;;;;;;;;5040867;28;4853;-64
2023/03/19 09:54:51;;;;;;;;;;;;;;;;;;5073194;28;4652;-65
2023/03/19 09:57:17;;;;;;;;;;;;;;;;;;5042429;28;4903;-60
2023/03/19 09:59:42;;;;;;;;;;;;;;;;;;5030069;28;5136;-61
2023/03/19 10:02:26;;;;;;;;;;;;;;;;;;5050272;28;4620;-61
2023/03/19 10:04:54;;;;;;;;;;;;;;;;;;5044659;28;4797;-62
2023/03/19 10:07:43;;;;;;;;;;;;;;;;;;5042021;28;3377;-61
2023/03/19 10:10:11;;;;;;;;;;;;;;;;;;5034563;28;5076;-63
2023/03/19 10:12:36;;;;;;;;;;;;;;;;;;5046184;28;5013;-62
2023/03/19 10:15:18;;;;;;;;;;;;;;;;;;5050336;28;5004;-60
2023/03/19 10:17:44;;;;;;;;;;;;;;;;;;5033776;28;4699;-60
2023/03/19 10:20:16;;;;;;;;;;;;;;;;;;5040836;28;4688;-61
2023/03/19 10:22:43;;;;;;;;;;;;;;;;;;5056011;28;4713;-58
2023/03/19 10:25:14;;;;;;;;;;;;;;;;;;5050655;28;3518;-60
2023/03/19 10:27:40;;;;;;;;;;;;;;;;;;5073725;28;4505;-62
2023/03/19 10:30:14;;;;;;;;;;;;;;;;;;5048236;28;4474;-61
2023/03/19 10:32:43;;;;;;;;;;;;;;;;;;5041008;28;4732;-59
2023/03/19 10:35:19;;;;;;;;;;;;;;;;;;5043293;28;5404;-60
2023/03/19 10:37:44;;;;;;;;;;;;;;;;;;5042151;28;5131;-59
2023/03/19 10:40:16;;;;;;;;;;;;;;;;;;5074798;28;3439;-61
2023/03/19 10:42:59;;;;;;;;;;;;;;;;;;5046514;28;4980;-59
2023/03/19 10:45:29;;;;;;;;;;;;;;;;;;5045634;28;4947;-60
2023/03/19 10:47:55;;;;;;;;;;;;;;;;;;5039243;28;4988;-59
2023/03/19 10:50:30;;;;;;;;;;;;;;;;;;5037636;28;5027;-59
2023/03/19 10:53:14;;;;;;;;;;;;;;;;;;5041154;28;4445;-58
2023/03/19 10:56:06;;;;;;;;;;;;;;;;;;5046940;28;4742;-58
2023/03/19 10:58:32;;;;;;;;;;;;;;;;;;5047595;28;3516;-58
2023/03/19 11:01:01;;;;;;;;;;;;;;;;;;5042951;28;4615;-59
2023/03/19 11:03:36;;;;;;;;;;;;;;;;;;5038509;28;5247;-59
2023/03/19 11:06:02;;;;;;;;;;;;;;;;;;5046281;28;5018;-59
2023/03/19 11:08:28;;;;;;;;;;;;;;;;;;5071345;28;4582;-57
2023/03/19 11:10:53;;;;;;;;;;;;;;;;;;5043341;28;4636;-56
2023/03/19 11:13:24;;;;;;;;;;;;;;;;;;5047404;28;1198;-59
2023/03/19 11:15:50;;;;;;;;;;;;;;;;;;5036234;28;4421;-58
2023/03/19 11:18:19;;;;;;;;;;;;;;;;;;5053481;28;4999;-58
2023/03/19 11:20:49;;;;;;;;;;;;;;;;;;5041048;28;4508;-58
2023/03/19 11:23:15;;;;;;;;;;;;;;;;;;5045376;28;5215;-59
2023/03/19 11:25:41;;;;;;;;;;;;;;;;;;5043822;28;5143;-59
2023/03/19 11:28:16;;;;;;;;;;;;;;;;;;5038600;28;3449;-60
2023/03/19 11:31:00;;;;;;;;;;;;;;;;;;5032727;28;4492;-60
2023/03/19 11:33:44;;;;;;;;;;;;;;;;;;5040022;28;5056;-58
2023/03/19 11:36:12;;;;;;;;;;;;;;;;;;5050088;28;4474;-60
2023/03/19 11:38:40;;;;;;;;;;;;;;;;;;5037387;28;4703;-56
2023/03/19 11:41:09;;;;;;;;;;;;;;;;;;5056490;28;5193;-62
2023/03/19 11:43:37;;;;;;;;;;;;;;;;;;5042902;28;4891;-59
2023/03/19 11:46:08;;;;;;;;;;;;;;;;;;5038070;28;3012;-60
2023/03/19 11:48:52;;;;;;;;;;;;;;;;;;5044715;28;5030;-59
2023/03/19 11:51:29;;;;;;;;;;;;;;;;;;5055673;28;4475;-60
2023/03/19 11:54:04;;;;;;;;;;;;;;;;;;5049799;28;4629;-60
2023/03/19 11:56:49;;;;;;;;;;;;;;;;;;5048709;28;4532;-58
2023/03/19 11:59:17;;;;;;;;;;;;;;;;;;5042427;28;4571;-58
2023/03/19 12:01:58;;;;;;;;;;;;;;;;;;5048319;28;5130;-60
2023/03/19 12:04:29;;;;;;;;;;;;;;;;;;5051337;28;4783;-59
2023/03/19 12:07:01;;;;;;;;;;;;;;;;;;5047634;28;4458;-58
2023/03/19 12:09:39;;;;;;;;;;;;;;;;;;5056581;28;4622;-58
2023/03/19 12:12:30;;;;;;;;;;;;;;;;;;5044541;28;4530;-58
2023/03/19 12:14:59;;;;;;;;;;;;;;;;;;5043456;28;4506;-59
2023/03/19 12:17:36;;;;;;;;;;;;;;;;;;5046995;28;4462;-59
2023/03/19 12:20:04;;;;;;;;;;;;;;;;;;5046975;28;5122;-57
2023/03/19 12:22:46;;;;;;;;;;;;;;;;;;5049131;28;3350;-58
2023/03/19 12:25:23;;;;;;;;;;;;;;;;;;5036083;28;5342;-59
2023/03/19 12:27:52;;;;;;;;;;;;;;;;;;5044554;28;4595;-59
2023/03/19 12:30:22;;;;;;;;;;;;;;;;;;5050795;28;4835;-60
2023/03/19 12:32:47;;;;;;;;;;;;;;;;;;5050178;28;4550;-59
2023/03/19 12:35:15;;;;;;;;;;;;;;;;;;5048712;28;5059;-59
2023/03/19 12:38:15;;;;;;;;;;;;;;;;;;5054777;28;4515;-59
2023/03/19 12:40:42;;;;;;;;;;;;;;;;;;5019486;28;5221;-61
2023/03/19 12:43:13;;;;;;;;;;;;;;;;;;5045011;28;3633;-60
2023/03/19 12:45:40;;;;;;;;;;;;;;;;;;5041924;28;4511;-60
2023/03/19 12:48:12;;;;;;;;;;;;;;;;;;5043465;28;5664;-60
2023/03/19 12:50:38;;;;;;;;;;;;;;;;;;5048378;28;5652;-60
2023/03/19 12:53:09;;;;;;;;;;;;;;;;;;5045246;28;4973;-60
2023/03/19 12:55:42;;;;;;;;;;;;;;;;;;5047699;28;4684;-61
2023/03/19 12:58:22;;;;;;;;;;;;;;;;;;5045442;28;1394;-61
2023/03/19 13:01:12;;;;;;;;;;;;;;;;;;5079219;28;4626;-61
2023/03/19 13:03:39;;;;;;;;;;;;;;;;;;5044517;28;5401;-61
2023/03/19 13:06:08;;;;;;;;;;;;;;;;;;5037029;28;5148;-61
2023/03/19 13:08:37;;;;;;;;;;;;;;;;;;5037089;28;4571;-62
2023/03/19 13:11:03;;;;;;;;;;;;;;;;;;5044220;28;4701;-62
2023/03/19 13:13:48;;;;;;;;;;;;;;;;;;5048624;28;1365;-61
2023/03/19 13:16:18;;;;;;;;;;;;;;;;;;5080864;28;5013;-60
2023/03/19 13:18:53;;;;;;;;;;;;;;;;;;5043818;28;5725;-61
2023/03/19 13:21:26;;;;;;;;;;;;;;;;;;5037947;28;5118;-61
2023/03/19 13:24:01;;;;;;;;;;;;;;;;;;5037525;28;4516;-62
2023/03/19 13:26:26;;;;;;;;;;;;;;;;;;5045850;28;5012;-61
2023/03/19 13:28:58;;;;;;;;;;;;;;;;;;5058674;28;4901;-60
2023/03/19 13:31:23;;;;;;;;;;;;;;;;;;5044834;28;2027;-61
2023/03/19 13:34:12;;;;;;;;;;;;;;;;;;5045938;28;4549;-60
2023/03/19 13:36:40;;;;;;;;;;;;;;;;;;5037752;28;4622;-61
2023/03/19 13:39:11;;;;;;;;;;;;;;;;;;5074691;28;4955;-61
2023/03/19 13:41:41;;;;;;;;;;;;;;;;;;5047803;28;4497;-61
2023/03/19 13:44:25;;;;;;;;;;;;;;;;;;5045571;28;5140;-60
2023/03/19 13:46:51;;;;;;;;;;;;;;;;;;5048565;28;4783;-60
2023/03/19 13:49:26;;;;;;;;;;;;;;;;;;5045622;28;3528;-61
2023/03/19 13:51:59;;;;;;;;;;;;;;;;;;5035659;28;4780;-61
2023/03/19 13:54:31;;;;;;;;;;;;;;;;;;5045696;28;4486;-60
2023/03/19 13:57:07;;;;;;;;;;;;;;;;;;5078382;28;4438;-60
2023/03/19 13:59:39;;;;;;;;;;;;;;;;;;5041192;28;4454;-61
2023/03/19 14:02:20;;;;;;;;;;;;;;;;;;5046154;28;4855;-59
2023/03/19 14:04:49;;;;;;;;;;;;;;;;;;5042628;28;4703;-58
2023/03/19 14:07:18;;;;;;;;;;;;;;;;;;5045056;28;3325;-59
2023/03/19 14:09:45;;;;;;;;;;;;;;;;;;5045749;28;4681;-59
2023/03/19 14:12:11;;;;;;;;;;;;;;;;;;5046341;28;4557;-59
2023/03/19 14:14:43;;;;;;;;;;;;;;;;;;5077742;28;5104;-58
2023/03/19 14:17:29;;;;;;;;;;;;;;;;;;5047146;28;5013;-59
2023/03/19 14:19:54;;;;;;;;;;;;;;;;;;5037761;28;5033;-59
2023/03/19 14:22:34;;;;;;;;;;;;;;;;;;5028975;28;3343;-59
2023/03/19 14:25:02;;;;;;;;;;;;;;;;;;5033632;28;4545;-59
2023/03/19 14:27:31;;;;;;;;;;;;;;;;;;5042840;28;4483;-59
2023/03/19 14:29:56;;;;;;;;;;;;;;;;;;5043198;28;4651;-59
2023/03/19 14:32:23;;;;;;;;;;;;;;;;;;5043091;28;4992;-59
2023/03/19 14:34:48;;;;;;;;;;;;;;;;;;5042687;28;5199;-60
2023/03/19 14:37:24;;;;;;;;;;;;;;;;;;5080719;28;1194;-59
2023/03/19 14:39:53;;;;;;;;;;;;;;;;;;5042248;28;4626;-59
2023/03/19 14:42:21;;;;;;;;;;;;;;;;;;5043724;28;5158;-58
2023/03/19 14:45:05;;;;;;;;;;;;;;;;;;5045017;28;4637;-59
2023/03/19 14:47:31;;;;;;;;;;;;;;;;;;5037022;28;4685;-59
2023/03/19 14:50:11;;;;;;;;;;;;;;;;;;5043330;28;4957;-59
2023/03/19 14:52:45;;;;;;;;;;;;;;;;;;5042793;28;4522;-59
2023/03/19 14:55:12;;;;;;;;;;;;;;;;;;5045724;28;1148;-59
2023/03/19 14:57:37;;;;;;;;;;;;;;;;;;5036211;28;5204;-60
2023/03/19 15:00:05;;;;;;;;;;;;;;;;;;5038217;28;4459;-62
2023/03/19 15:02:33;;;;;;;;;;;;;;;;;;5040229;28;5308;-59
2023/03/19 15:04:59;;;;;;;;;;;;;;;;;;5043630;28;4707;-61
2023/03/19 15:07:29;;;;;;;;;;;;;;;;;;5047760;28;1550;-59
2023/03/19 15:09:54;;;;;;;;;;;;;;;;;;5046981;28;4391;-61
2023/03/19 15:12:30;;;;;;;;;;;;;;;;;;5046713;28;4751;-59
2023/03/19 15:15:08;;;;;;;;;;;;;;;;;;5035170;28;4450;-59
2023/03/19 15:17:33;;;;;;;;;;;;;;;;;;5042042;28;4495;-59
2023/03/19 15:19:59;;;;;;;;;;;;;;;;;;5042431;28;4862;-59
2023/03/19 15:22:30;;;;;;;;;;;;;;;;;;5037123;28;3213;-60
2023/03/19 15:25:03;;;;;;;;;;;;;;;;;;5034617;28;4416;-59
2023/03/19 15:27:29;;;;;;;;;;;;;;;;;;5032817;28;4486;-59
2023/03/19 15:29:54;;;;;;;;;;;;;;;;;;5036164;28;4678;-59
2023/03/19 15:32:32;;;;;;;;;;;;;;;;;;5045383;28;4435;-59
2023/03/19 15:34:58;;;;;;;;;;;;;;;;;;5046655;28;4718;-59
2023/03/19 15:37:23;;;;;;;;;;;;;;;;;;5043153;28;1268;-58
2023/03/19 15:39:50;;;;;;;;;;;;;;;;;;5037676;28;4599;-59
2023/03/19 15:42:15;;;;;;;;;;;;;;;;;;5037745;28;4753;-60
2023/03/19 15:44:43;;;;;;;;;;;;;;;;;;5036776;28;4611;-60
2023/03/19 15:47:10;;;;;;;;;;;;;;;;;;5079235;28;5013;-60
2023/03/19 15:49:37;;;;;;;;;;;;;;;;;;5044256;28;4537;-60
2023/03/19 15:52:03;;;;;;;;;;;;;;;;;;5041355;28;3237;-61
2023/03/19 15:54:29;;;;;;;;;;;;;;;;;;5043711;28;4657;-60
2023/03/19 15:56:54;;;;;;;;;;;;;;;;;;5043321;28;4847;-60
2023/03/19 15:59:20;;;;;;;;;;;;;;;;;;5045205;28;4483;-61
2023/03/19 16:01:45;;;;;;;;;;;;;;;;;;5046235;28;4543;-60
2023/03/19 16:04:15;;;;;;;;;;;;;;;;;;5041998;28;4786;-60
2023/03/19 16:06:40;;;;;;;;;;;;;;;;;;5046485;28;4618;-60
2023/03/19 16:09:14;;;;;;;;;;;;;;;;;;5046503;28;4465;-60
2023/03/19 16:11:43;;;;;;;;;;;;;;;;;;5042869;28;4467;-60
2023/03/19 16:14:16;;;;;;;;;;;;;;;;;;5044235;28;4671;-61
2023/03/19 16:16:41;;;;;;;;;;;;;;;;;;5029085;28;4466;-62
2023/03/19 16:19:24;;;;;;;;;;;;;;;;;;5046116;28;2038;-61
2023/03/19 16:21:50;;;;;;;;;;;;;;;;;;5042982;28;4487;-61
2023/03/19 16:24:29;;;;;;;;;;;;;;;;;;5041035;28;4458;-62
2023/03/19 16:26:55;;;;;;;;;;;;;;;;;;5031977;28;4515;-61
2023/03/19 16:29:21;;;;;;;;;;;;;;;;;;5045584;28;4700;-61
2023/03/19 16:31:50;;;;;;;;;;;;;;;;;;5048336;28;4542;-60
2023/03/19 16:34:28;;;;;;;;;;;;;;;;;;5049627;28;1107;-60
2023/03/19 16:36:53;;;;;;;;;;;;;;;;;;5049802;28;5236;-61
2023/03/19 16:39:28;;;;;;;;;;;;;;;;;;5045162;28;5011;-61
2023/03/19 16:42:11;;;;;;;;;;;;;;;;;;5040313;28;4491;-60
2023/03/19 16:44:40;;;;;;;;;;;;;;;;;;5042837;28;4989;-61
2023/03/19 16:47:12;;;;;;;;;;;;;;;;;;5041773;28;4491;-61
2023/03/19 16:49:38;;;;;;;;;;;;;;;;;;5049918;28;4699;-61
2023/03/19 16:52:03;;;;;;;;;;;;;;;;;;5041213;28;3521;-60
2023/03/19 16:54:29;;;;;;;;;;;;;;;;;;5046730;28;4483;-60
2023/03/19 16:56:54;;;;;;;;;;;;;;;;;;5047480;28;4517;-60
2023/03/19 16:59:20;;;;;;;;;;;;;;;;;;5049197;28;4502;-61
2023/03/19 17:01:45;;;;;;;;;;;;;;;;;;5047688;28;4493;-62
2023/03/19 17:04:11;;;;;;;;;;;;;;;;;;5047491;28;4818;-59
2023/03/19 17:06:36;;;;;;;;;;;;;;;;;;5046862;28;4937;-61
2023/03/19 17:09:01;;;;;;;;;;;;;;;;;;5041909;28;4490;-60